Time;durP1;ratioP1;P1;durP2;ratioP2;P2;SDS_P1;SDS_P2;PMS_P1;PMS_P2;Temp;Humidity;BMP_temperature;BMP_pressure;BME280_temperature;BME280_humidity;BME280_pressure;Samples;Min_cycle;Max_cycle;Signal;HPM_P1;HPM_P2
2023/10/30 00:00:09;;;;;;;4.65;1.65;;;9.90;99.90;;;;;;7371014;19;20071;-64
2023/10/30 00:02:39;;;;;;;5.50;1.60;;;9.90;99.90;;;;;;7369752;19;20740;-65
2023/10/30 00:05:07;;;;;;;7.97;2.00;;;9.80;99.90;;;;;;7377558;19;20056;-65
2023/10/30 00:07:33;;;;;;;8.85;1.60;;;9.80;99.90;;;;;;7378528;19;20018;-62
2023/10/30 00:09:59;;;;;;;5.40;1.90;;;9.80;99.90;;;;;;7378074;19;20478;-64
2023/10/30 00:12:26;;;;;;;5.72;1.60;;;9.70;99.90;;;;;;7378401;19;20056;-65
2023/10/30 00:14:53;;;;;;;7.68;1.98;;;9.70;99.90;;;;;;7376598;19;20692;-65
2023/10/30 00:17:20;;;;;;;6.95;1.42;;;9.60;99.90;;;;;;7371821;19;20048;-65
2023/10/30 00:19:46;;;;;;;7.97;1.90;;;9.60;99.90;;;;;;7371922;19;20772;-65
2023/10/30 00:22:12;;;;;;;11.55;2.45;;;9.50;99.90;;;;;;7377612;19;20030;-65
2023/10/30 00:24:39;;;;;;;4.82;1.70;;;9.50;99.90;;;;;;7377396;19;20826;-62
2023/10/30 00:27:05;;;;;;;5.85;1.85;;;9.40;99.90;;;;;;7376584;19;20018;-65
2023/10/30 00:29:38;;;;;;;8.27;2.38;;;9.40;99.90;;;;;;7372420;19;20025;-65
2023/10/30 00:32:05;;;;;;;7.60;2.00;;;9.40;99.90;;;;;;7374066;19;20792;-62
2023/10/30 00:34:32;;;;;;;6.60;2.03;;;9.40;99.90;;;;;;7373723;19;20022;-62
2023/10/30 00:36:58;;;;;;;5.97;2.13;;;9.40;99.90;;;;;;7373768;19;20032;-61
2023/10/30 00:39:24;;;;;;;8.18;2.22;;;9.30;99.90;;;;;;7374264;19;20018;-61
2023/10/30 00:41:50;;;;;;;13.70;2.65;;;9.30;99.90;;;;;;7371640;19;20026;-62
2023/10/30 00:44:16;;;;;;;7.40;2.88;;;9.30;99.90;;;;;;7373056;19;20018;-62
2023/10/30 00:46:43;;;;;;;6.75;2.22;;;9.30;99.90;;;;;;7375346;19;20023;-65
2023/10/30 00:49:09;;;;;;;5.72;2.20;;;9.30;99.90;;;;;;7374601;19;20069;-65
2023/10/30 00:51:36;;;;;;;5.40;2.08;;;9.30;99.90;;;;;;7375755;19;20018;-64
2023/10/30 00:54:02;;;;;;;7.03;2.20;;;9.30;99.90;;;;;;7374740;19;20024;-65
2023/10/30 00:56:28;;;;;;;6.95;2.10;;;9.30;99.90;;;;;;7370385;19;20018;-65
2023/10/30 00:58:54;;;;;;;7.78;2.70;;;9.30;99.90;;;;;;7374273;19;20023;-62
2023/10/30 01:01:23;;;;;;;10.32;2.67;;;9.30;99.90;;;;;;7378276;19;20026;-61
2023/10/30 01:03:49;;;;;;;7.18;2.22;;;9.20;99.90;;;;;;7373969;19;20026;-62
2023/10/30 01:06:15;;;;;;;7.10;1.95;;;9.20;99.90;;;;;;7371646;19;21325;-65
2023/10/30 01:08:42;;;;;;;5.57;2.28;;;9.20;99.90;;;;;;7378789;19;20026;-63
2023/10/30 01:11:09;;;;;;;7.13;2.45;;;9.20;99.90;;;;;;7365729;19;20074;-65
2023/10/30 01:13:36;;;;;;;9.52;2.45;;;9.20;99.90;;;;;;7372989;19;20018;-62
2023/10/30 01:16:05;;;;;;;6.80;2.50;;;9.20;99.90;;;;;;7373036;19;20091;-62
2023/10/30 01:18:31;;;;;;;9.90;2.10;;;9.20;99.90;;;;;;7374849;19;20749;-65
2023/10/30 01:20:57;;;;;;;5.22;2.13;;;9.10;99.90;;;;;;7373813;19;20015;-65
2023/10/30 01:23:24;;;;;;;3.25;2.05;;;9.10;99.90;;;;;;7373673;19;20028;-62
2023/10/30 01:25:51;;;;;;;5.18;2.08;;;9.10;99.90;;;;;;7375576;19;20028;-62
2023/10/30 01:28:17;;;;;;;7.80;2.30;;;9.10;99.90;;;;;;7372594;19;20026;-63
2023/10/30 01:30:43;;;;;;;6.88;2.30;;;9.00;99.90;;;;;;7375148;19;20018;-62
2023/10/30 01:33:09;;;;;;;9.27;2.45;;;9.00;99.90;;;;;;7378854;19;20066;-62
2023/10/30 01:35:36;;;;;;;7.68;2.55;;;9.00;99.90;;;;;;7377817;19;20053;-65
2023/10/30 01:38:03;;;;;;;9.05;2.40;;;9.00;99.90;;;;;;7367973;19;20018;-65
2023/10/30 01:40:29;;;;;;;10.40;2.78;;;9.00;99.90;;;;;;7374012;19;20011;-65
2023/10/30 01:42:55;;;;;;;6.40;2.10;;;9.10;99.90;;;;;;7373088;19;20019;-65
2023/10/30 01:45:21;;;;;;;7.38;2.72;;;9.20;99.90;;;;;;7371140;19;20023;-62
2023/10/30 01:47:48;;;;;;;10.25;2.40;;;9.20;99.90;;;;;;7372191;19;20391;-62
2023/10/30 01:50:16;;;;;;;9.93;2.42;;;9.20;99.90;;;;;;7376433;19;20092;-62
2023/10/30 01:52:44;;;;;;;8.35;2.13;;;9.20;99.90;;;;;;7376385;19;20513;-62
2023/10/30 01:55:11;;;;;;;9.63;2.70;;;9.20;99.90;;;;;;7369075;19;20097;-62
2023/10/30 01:57:38;;;;;;;10.55;2.63;;;9.20;99.90;;;;;;7376199;19;20034;-62
2023/10/30 02:00:05;;;;;;;7.10;2.50;;;9.30;99.90;;;;;;7370086;19;20026;-62
2023/10/30 02:02:39;;;;;;;6.10;2.15;;;9.30;99.90;;;;;;7371885;19;20493;-65
2023/10/30 02:05:08;;;;;;;9.77;2.50;;;9.40;99.90;;;;;;7373091;19;20102;-62
2023/10/30 02:07:36;;;;;;;11.70;2.38;;;9.40;99.90;;;;;;7371762;19;20014;-62
2023/10/30 02:10:04;;;;;;;8.57;2.28;;;9.40;99.90;;;;;;7371265;19;20022;-62
2023/10/30 02:12:34;;;;;;;12.40;3.10;;;9.30;99.90;;;;;;7372028;19;20022;-62
2023/10/30 02:15:01;;;;;;;9.25;2.80;;;9.40;99.90;;;;;;7371604;19;20106;-65
2023/10/30 02:17:30;;;;;;;10.38;2.28;;;9.30;99.90;;;;;;7373769;19;20022;-65
2023/10/30 02:19:56;;;;;;;8.85;2.65;;;9.30;99.90;;;;;;7368471;19;20025;-65
2023/10/30 02:22:22;;;;;;;8.60;2.63;;;9.30;99.90;;;;;;7371077;19;20011;-65
2023/10/30 02:24:49;;;;;;;10.73;2.20;;;9.30;99.90;;;;;;7372063;19;20026;-65
2023/10/30 02:27:17;;;;;;;9.25;2.55;;;9.30;99.90;;;;;;7371781;19;20834;-66
2023/10/30 02:29:44;;;;;;;12.77;2.80;;;9.20;99.90;;;;;;7370598;19;20025;-65
2023/10/30 02:32:10;;;;;;;11.27;2.15;;;9.20;99.90;;;;;;7367967;19;20018;-65
2023/10/30 02:34:36;;;;;;;10.60;2.88;;;9.20;99.90;;;;;;7373230;19;20019;-65
2023/10/30 02:37:03;;;;;;;11.40;2.53;;;9.10;99.90;;;;;;7371192;19;20452;-65
2023/10/30 02:39:32;;;;;;;14.98;3.10;;;9.10;99.90;;;;;;7372767;19;20026;-65
2023/10/30 02:42:00;;;;;;;13.45;2.90;;;9.10;99.90;;;;;;7373852;19;20018;-65
2023/10/30 02:44:28;;;;;;;9.80;2.22;;;9.20;99.90;;;;;;7373802;19;20064;-66
2023/10/30 02:46:55;;;;;;;11.32;3.05;;;9.20;99.90;;;;;;7373375;19;20015;-66
2023/10/30 02:49:23;;;;;;;7.20;2.13;;;9.20;99.90;;;;;;7366029;19;20022;-66
2023/10/30 02:51:50;;;;;;;10.07;2.58;;;9.30;99.90;;;;;;7356086;19;20018;-66
2023/10/30 02:54:16;;;;;;;13.07;2.65;;;9.30;99.90;;;;;;7368721;19;20035;-65
2023/10/30 02:56:42;;;;;;;14.52;3.00;;;9.30;99.90;;;;;;7367594;19;20459;-66
2023/10/30 02:59:09;;;;;;;12.70;3.20;;;9.30;99.90;;;;;;7373029;19;20493;-66
2023/10/30 03:01:37;;;;;;;14.40;3.00;;;9.30;99.90;;;;;;7365168;19;20030;-66
2023/10/30 03:04:03;;;;;;;13.00;2.95;;;9.30;99.90;;;;;;7366873;19;20050;-66
2023/10/30 03:06:30;;;;;;;14.27;3.13;;;9.40;99.90;;;;;;7368040;19;20410;-66
2023/10/30 03:08:58;;;;;;;10.73;2.65;;;9.40;99.90;;;;;;7364719;19;20014;-67
2023/10/30 03:11:25;;;;;;;12.05;3.33;;;9.40;99.90;;;;;;7369430;19;20597;-66
2023/10/30 03:13:53;;;;;;;9.75;2.97;;;9.50;99.90;;;;;;7366981;19;20022;-67
2023/10/30 03:16:20;;;;;;;15.73;2.88;;;9.50;99.90;;;;;;7365674;19;20014;-66
2023/10/30 03:18:46;;;;;;;14.93;3.00;;;9.50;99.90;;;;;;7364328;19;20023;-66
2023/10/30 03:21:12;;;;;;;10.88;2.90;;;9.40;99.90;;;;;;7371030;19;20569;-66
2023/10/30 03:23:39;;;;;;;11.27;3.03;;;9.50;99.90;;;;;;7365453;19;20929;-62
2023/10/30 03:26:05;;;;;;;14.38;2.95;;;9.40;99.90;;;;;;7369565;19;20019;-62
2023/10/30 03:28:32;;;;;;;11.18;2.70;;;9.40;99.90;;;;;;7367836;19;20023;-63
2023/10/30 03:31:05;;;;;;;9.43;2.65;;;9.40;99.90;;;;;;7368539;19;20344;-62
2023/10/30 03:33:31;;;;;;;11.25;2.75;;;9.40;99.90;;;;;;7371210;19;20111;-66
2023/10/30 03:35:57;;;;;;;12.32;2.75;;;9.50;99.90;;;;;;7370160;19;20042;-66
2023/10/30 03:38:24;;;;;;;9.95;2.42;;;9.40;99.90;;;;;;7368921;19;20744;-66
2023/10/30 03:40:50;;;;;;;10.55;2.60;;;9.40;99.90;;;;;;7375010;19;20050;-66
2023/10/30 03:43:16;;;;;;;9.48;2.28;;;9.40;99.90;;;;;;7379697;19;21005;-65
2023/10/30 03:45:44;;;;;;;10.80;2.58;;;9.30;99.90;;;;;;7377467;19;20074;-66
2023/10/30 03:48:11;;;;;;;12.23;2.95;;;9.40;99.90;;;;;;7373891;19;20015;-66
2023/10/30 03:50:37;;;;;;;14.27;2.78;;;9.40;99.90;;;;;;7376820;19;20025;-66
2023/10/30 03:53:04;;;;;;;15.32;2.55;;;9.40;99.90;;;;;;7378040;19;20018;-66
2023/10/30 03:55:30;;;;;;;13.82;3.10;;;9.40;99.90;;;;;;7376075;19;20372;-66
2023/10/30 03:57:56;;;;;;;14.38;2.60;;;9.40;99.90;;;;;;7378781;19;20577;-66
2023/10/30 04:00:22;;;;;;;12.43;2.53;;;9.40;99.90;;;;;;7377754;19;20018;-65
2023/10/30 04:02:49;;;;;;;10.20;2.33;;;9.40;99.90;;;;;;7383563;19;20078;-67
2023/10/30 04:05:16;;;;;;;11.90;3.05;;;9.40;99.90;;;;;;7377700;19;20019;-66
2023/10/30 04:07:42;;;;;;;11.15;3.13;;;9.40;99.90;;;;;;7383285;19;20037;-66
2023/10/30 04:10:09;;;;;;;20.95;3.22;;;9.40;99.90;;;;;;7377528;19;20485;-66
2023/10/30 04:12:35;;;;;;;12.02;2.92;;;9.40;99.90;;;;;;7380662;19;20015;-66
2023/10/30 04:15:01;;;;;;;9.48;2.05;;;9.30;99.90;;;;;;7378586;19;20029;-66
2023/10/30 04:17:29;;;;;;;11.57;2.08;;;9.30;99.90;;;;;;7377230;19;20048;-66
2023/10/30 04:19:55;;;;;;;12.13;2.60;;;9.30;99.90;;;;;;7379737;19;20018;-66
2023/10/30 04:22:22;;;;;;;10.75;2.40;;;9.30;99.90;;;;;;7378760;19;20094;-66
2023/10/30 04:24:48;;;;;;;8.38;2.40;;;9.30;99.90;;;;;;7378351;19;20483;-63
2023/10/30 04:27:14;;;;;;;11.65;3.03;;;9.30;99.90;;;;;;7375182;19;20026;-62
2023/10/30 04:29:41;;;;;;;8.23;2.35;;;9.30;99.90;;;;;;7379779;19;20054;-66
2023/10/30 04:32:08;;;;;;;10.60;3.20;;;9.20;99.90;;;;;;7375789;19;20022;-66
2023/10/30 04:34:34;;;;;;;13.90;3.05;;;9.30;99.90;;;;;;7379003;19;20026;-66
2023/10/30 04:37:00;;;;;;;10.75;2.55;;;9.30;99.90;;;;;;7376071;19;20022;-66
2023/10/30 04:39:26;;;;;;;10.35;1.83;;;9.20;99.90;;;;;;7373717;19;20055;-66
2023/10/30 04:41:54;;;;;;;11.55;2.72;;;9.30;99.90;;;;;;7376188;19;20498;-66
2023/10/30 04:44:20;;;;;;;13.68;2.53;;;9.20;99.90;;;;;;7378286;19;20056;-62
2023/10/30 04:46:46;;;;;;;13.40;2.67;;;9.20;99.90;;;;;;7376006;19;20015;-63
2023/10/30 04:49:16;;;;;;;12.35;2.65;;;9.20;99.90;;;;;;7370215;19;20029;-63
2023/10/30 04:51:42;;;;;;;10.32;2.30;;;9.10;99.90;;;;;;7371254;19;20022;-62
2023/10/30 04:54:08;;;;;;;12.32;2.85;;;9.10;99.90;;;;;;7375652;19;20394;-62
2023/10/30 04:56:35;;;;;;;15.68;2.60;;;9.00;99.90;;;;;;7374823;19;20022;-63
2023/10/30 04:59:01;;;;;;;15.52;3.20;;;9.00;99.90;;;;;;7373262;19;20044;-63
2023/10/30 05:01:27;;;;;;;14.30;3.13;;;8.90;99.90;;;;;;7379767;19;20056;-63
2023/10/30 05:03:57;;;;;;;12.68;2.50;;;8.90;99.90;;;;;;7377984;19;20018;-63
2023/10/30 05:06:23;;;;;;;12.40;2.45;;;8.80;99.90;;;;;;7379799;19;20093;-66
2023/10/30 05:08:49;;;;;;;11.85;2.08;;;8.80;99.90;;;;;;7373885;19;20028;-65
2023/10/30 05:11:15;;;;;;;11.88;2.88;;;8.80;99.90;;;;;;7375624;19;20022;-66
2023/10/30 05:13:42;;;;;;;10.55;2.60;;;8.80;99.90;;;;;;7380193;19;20052;-65
2023/10/30 05:16:08;;;;;;;13.88;2.70;;;8.80;99.90;;;;;;7379494;19;20026;-65
2023/10/30 05:18:35;;;;;;;14.60;3.10;;;8.70;99.90;;;;;;7376862;19;20109;-66
2023/10/30 05:21:01;;;;;;;14.45;2.53;;;8.70;99.90;;;;;;7377764;19;20026;-66
2023/10/30 05:23:28;;;;;;;13.98;3.30;;;8.70;99.90;;;;;;7379621;19;20018;-66
2023/10/30 05:25:54;;;;;;;13.23;2.40;;;8.70;99.90;;;;;;7375167;19;20018;-62
2023/10/30 05:28:20;;;;;;;15.23;2.95;;;8.70;99.90;;;;;;7376311;19;20926;-62
2023/10/30 05:30:48;;;;;;;13.65;2.25;;;8.70;99.90;;;;;;7354327;19;20029;-63
2023/10/30 05:33:14;;;;;;;14.25;2.72;;;8.70;99.90;;;;;;7374119;19;20022;-62
2023/10/30 05:35:40;;;;;;;14.75;2.70;;;8.80;99.90;;;;;;7376938;19;20148;-63
2023/10/30 05:38:06;;;;;;;13.57;2.88;;;8.70;99.90;;;;;;7375390;19;20018;-62
2023/10/30 05:40:32;;;;;;;15.45;2.72;;;8.80;99.90;;;;;;7376255;19;20641;-62
2023/10/30 05:42:59;;;;;;;14.77;2.60;;;8.80;99.90;;;;;;7372808;19;20153;-62
2023/10/30 05:45:25;;;;;;;15.70;2.60;;;8.80;99.90;;;;;;7373065;19;20022;-62
2023/10/30 05:47:51;;;;;;;13.77;2.80;;;8.80;99.90;;;;;;7371896;19;20018;-63
2023/10/30 05:50:17;;;;;;;16.17;2.50;;;8.90;99.90;;;;;;7375672;19;20019;-66
2023/10/30 05:52:44;;;;;;;9.68;2.45;;;8.80;99.90;;;;;;7370520;19;21757;-65
2023/10/30 05:55:11;;;;;;;17.58;3.05;;;8.90;99.90;;;;;;7372035;19;20022;-65
2023/10/30 05:57:40;;;;;;;14.27;3.08;;;8.80;99.90;;;;;;7373254;19;20466;-65
2023/10/30 06:00:07;;;;;;;16.20;3.40;;;8.90;99.90;;;;;;7372079;19;20030;-65
2023/10/30 06:02:33;;;;;;;11.65;2.10;;;8.90;99.90;;;;;;7372918;19;20035;-65
2023/10/30 06:04:59;;;;;;;15.57;2.72;;;8.80;99.90;;;;;;7364845;19;20019;-65
2023/10/30 06:07:25;;;;;;;17.55;2.72;;;8.80;99.90;;;;;;7373780;19;20011;-65
2023/10/30 06:09:53;;;;;;;81.45;73.18;;;8.80;99.90;;;;;;7372868;19;20368;-65
2023/10/30 06:12:20;;;;;;;24.17;11.27;;;8.80;99.90;;;;;;7373925;19;20050;-66
2023/10/30 06:14:46;;;;;;;53.10;36.88;;;8.80;99.90;;;;;;7374405;19;20101;-60
2023/10/30 06:17:12;;;;;;;25.00;9.75;;;9.10;99.90;;;;;;7373473;19;20014;-70
2023/10/30 06:19:40;;;;;;;24.20;15.32;;;9.10;99.90;;;;;;7376032;19;20137;-66
2023/10/30 06:22:07;;;;;;;13.85;4.03;;;9.20;99.90;;;;;;7376841;19;20595;-65
2023/10/30 06:24:33;;;;;;;14.82;4.53;;;9.20;99.90;;;;;;7373665;19;20073;-66
2023/10/30 06:26:59;;;;;;;15.77;3.20;;;9.20;99.90;;;;;;7372557;19;20404;-67
2023/10/30 06:29:26;;;;;;;11.48;3.10;;;9.30;99.90;;;;;;7373721;19;20018;-67
2023/10/30 06:31:52;;;;;;;11.52;2.50;;;9.30;99.90;;;;;;7371173;19;20427;-64
2023/10/30 06:34:19;;;;;;;13.82;2.70;;;9.30;99.90;;;;;;7371862;19;20094;-66
2023/10/30 06:36:46;;;;;;;13.95;2.90;;;9.30;99.90;;;;;;7373710;19;20018;-65
2023/10/30 06:39:17;;;;;;;14.98;2.70;;;9.30;99.90;;;;;;7373401;19;20955;-63
2023/10/30 06:41:43;;;;;;;12.48;2.38;;;9.30;99.90;;;;;;7372810;19;20015;-63
2023/10/30 06:44:10;;;;;;;12.90;2.65;;;9.30;99.90;;;;;;7375021;19;20015;-66
2023/10/30 06:46:36;;;;;;;12.43;2.40;;;9.30;99.90;;;;;;7373183;19;20044;-66
2023/10/30 06:49:02;;;;;;;10.75;2.42;;;9.30;99.90;;;;;;7370280;19;20025;-66
2023/10/30 06:51:28;;;;;;;13.70;2.85;;;9.20;99.90;;;;;;7373843;19;20022;-67
2023/10/30 06:53:55;;;;;;;14.80;2.67;;;9.30;99.90;;;;;;7370435;19;20022;-66
2023/10/30 06:56:21;;;;;;;9.45;2.55;;;9.40;99.90;;;;;;7371151;19;20048;-61
2023/10/30 06:58:47;;;;;;;18.05;2.75;;;9.40;99.90;;;;;;7376204;19;20365;-60
2023/10/30 07:01:13;;;;;;;10.57;2.13;;;9.40;99.90;;;;;;7370907;19;20116;-60
2023/10/30 07:03:40;;;;;;;18.98;2.67;;;9.50;99.90;;;;;;7374939;19;21037;-61
2023/10/30 07:06:10;;;;;;;18.02;3.40;;;9.50;99.90;;;;;;7371561;19;20032;-65
2023/10/30 07:08:37;;;;;;;16.88;2.67;;;9.50;99.90;;;;;;7374310;19;20019;-66
2023/10/30 07:11:03;;;;;;;16.88;2.58;;;9.60;99.90;;;;;;7368093;19;20018;-66
2023/10/30 07:13:30;;;;;;;17.40;3.25;;;9.50;99.90;;;;;;7369486;19;20437;-65
2023/10/30 07:15:56;;;;;;;11.75;3.20;;;9.60;99.90;;;;;;7370743;19;20370;-66
2023/10/30 07:18:23;;;;;;;11.73;2.53;;;9.70;99.90;;;;;;7374205;19;20011;-65
2023/10/30 07:20:50;;;;;;;12.32;2.78;;;9.70;99.90;;;;;;7371324;19;20028;-65
2023/10/30 07:23:16;;;;;;;17.00;3.40;;;9.80;99.90;;;;;;7372591;19;20023;-62
2023/10/30 07:25:42;;;;;;;15.27;3.08;;;9.80;99.90;;;;;;7373533;19;20483;-65
2023/10/30 07:28:11;;;;;;;15.48;3.83;;;9.80;99.90;;;;;;7369666;19;20023;-62
2023/10/30 07:30:37;;;;;;;18.92;3.65;;;9.90;99.90;;;;;;7369509;19;20475;-65
2023/10/30 07:33:06;;;;;;;10.98;2.72;;;9.90;99.90;;;;;;7369302;19;20036;-66
2023/10/30 07:35:32;;;;;;;8.52;2.35;;;9.90;99.90;;;;;;7375876;19;20045;-68
2023/10/30 07:37:59;;;;;;;15.65;2.78;;;10.00;99.90;;;;;;7374439;19;20022;-65
2023/10/30 07:40:27;;;;;;;11.80;2.97;;;10.00;99.90;;;;;;7374473;19;20494;-66
2023/10/30 07:42:57;;;;;;;12.43;3.40;;;10.10;99.90;;;;;;7371993;19;20014;-62
2023/10/30 07:45:24;;;;;;;8.50;2.55;;;10.10;99.90;;;;;;7369926;19;20024;-62
2023/10/30 07:47:52;;;;;;;15.10;3.40;;;10.20;99.90;;;;;;7371654;19;20027;-62
2023/10/30 07:50:19;;;;;;;11.82;3.13;;;10.30;99.90;;;;;;7373243;19;20371;-62
2023/10/30 07:52:46;;;;;;;12.13;2.88;;;10.40;99.90;;;;;;7369150;19;20014;-61
2023/10/30 07:55:12;;;;;;;10.63;3.15;;;10.40;99.90;;;;;;7374197;19;20354;-61
2023/10/30 07:57:38;;;;;;;18.33;4.00;;;10.50;99.90;;;;;;7371808;19;20022;-61
2023/10/30 08:00:07;;;;;;;12.25;2.97;;;10.80;99.90;;;;;;7371386;19;20583;-61
2023/10/30 08:02:39;;;;;;;9.98;2.72;;;11.00;99.90;;;;;;7365656;19;20062;-61
2023/10/30 08:05:06;;;;;;;13.15;2.85;;;11.10;99.90;;;;;;7368737;19;20028;-64
2023/10/30 08:07:34;;;;;;;12.98;2.88;;;11.30;99.90;;;;;;7371004;19;20022;-62
2023/10/30 08:10:01;;;;;;;11.30;2.38;;;11.40;99.90;;;;;;7371952;19;20050;-64
2023/10/30 08:12:28;;;;;;;9.52;2.60;;;11.90;99.90;;;;;;7366879;19;20419;-65
2023/10/30 08:14:54;;;;;;;10.82;2.90;;;12.40;99.90;;;;;;7368305;19;20644;-61
2023/10/30 08:17:20;;;;;;;14.50;2.65;;;12.90;99.90;;;;;;7371318;19;20043;-64
2023/10/30 08:19:47;;;;;;;11.48;3.35;;;13.70;99.90;;;;;;7370423;19;20025;-62
2023/10/30 08:22:14;;;;;;;13.05;2.80;;;14.20;99.90;;;;;;7372386;19;20486;-63
2023/10/30 08:24:41;;;;;;;9.98;2.35;;;14.80;99.90;;;;;;7372334;19;20379;-63
2023/10/30 08:27:08;;;;;;;10.13;2.47;;;15.00;99.90;;;;;;7378948;19;20034;-63
2023/10/30 08:29:34;;;;;;;9.18;2.30;;;15.40;99.90;;;;;;7377264;19;20316;-64
2023/10/30 08:32:00;;;;;;;10.15;2.45;;;15.50;99.90;;;;;;7373735;19;20014;-63
2023/10/30 08:34:26;;;;;;;14.02;2.40;;;15.80;99.90;;;;;;7378942;19;20019;-63
2023/10/30 08:36:52;;;;;;;10.57;2.47;;;15.80;99.90;;;;;;7377295;19;20664;-63
2023/10/30 08:39:22;;;;;;;12.15;2.72;;;15.90;99.90;;;;;;7375264;19;20470;-65
2023/10/30 08:41:48;;;;;;;13.20;2.70;;;15.90;99.90;;;;;;7380908;19;20018;-63
2023/10/30 08:44:15;;;;;;;10.18;2.15;;;16.20;99.90;;;;;;7375036;19;20058;-63
2023/10/30 08:46:41;;;;;;;10.48;2.45;;;16.20;99.90;;;;;;7377032;19;20023;-62
2023/10/30 08:49:07;;;;;;;11.75;2.60;;;16.40;99.90;;;;;;7375259;19;20027;-65
2023/10/30 08:51:41;;;;;;;13.40;2.88;;;16.80;99.90;;;;;;7377005;19;20019;-67
2023/10/30 08:54:08;;;;;;;12.30;2.85;;;17.10;99.90;;;;;;7379853;19;20042;-64
2023/10/30 08:56:39;;;;;;;8.52;2.00;;;17.20;99.90;;;;;;7376963;19;20126;-63
2023/10/30 08:59:07;;;;;;;12.07;2.88;;;17.70;99.90;;;;;;7377704;19;20808;-63
2023/10/30 09:01:33;;;;;;;9.82;2.42;;;17.30;99.90;;;;;;7377636;19;20865;-63
2023/10/30 09:03:59;;;;;;;7.97;2.22;;;17.60;99.90;;;;;;7376006;19;20018;-65
2023/10/30 09:06:27;;;;;;;11.05;2.28;;;17.70;99.90;;;;;;7377908;19;20022;-63
2023/10/30 09:08:53;;;;;;;11.50;2.83;;;18.00;99.90;;;;;;7375770;19;20018;-65
2023/10/30 09:11:20;;;;;;;8.75;2.40;;;18.30;99.90;;;;;;7373064;19;20478;-64
2023/10/30 09:13:46;;;;;;;14.25;6.22;;;18.30;99.90;;;;;;7378582;19;20072;-62
2023/10/30 09:16:12;;;;;;;8.80;2.53;;;18.90;99.90;;;;;;7377069;19;20025;-62
2023/10/30 09:18:39;;;;;;;8.45;2.35;;;18.90;99.90;;;;;;7374189;19;20019;-62
2023/10/30 09:21:05;;;;;;;83.03;73.93;;;19.30;99.90;;;;;;7373123;19;20053;-50
2023/10/30 09:23:32;;;;;;;12.10;4.15;;;19.80;99.90;;;;;;7374620;19;20014;-59
2023/10/30 09:25:58;;;;;;;34.28;23.10;;;20.20;99.90;;;;;;7373971;19;20018;-63
2023/10/30 09:28:24;;;;;;;18.95;12.10;;;19.90;99.90;;;;;;7378534;19;20508;-63
2023/10/30 09:30:51;;;;;;;12.07;5.57;;;20.20;99.90;;;;;;7377370;19;20040;-62
2023/10/30 09:33:17;;;;;;;15.77;10.10;;;20.10;99.90;;;;;;7374879;19;20789;-62
2023/10/30 09:35:43;;;;;;;13.60;6.13;;;20.00;99.90;;;;;;7375461;19;20014;-64
2023/10/30 09:38:09;;;;;;;11.27;5.10;;;19.80;99.90;;;;;;7374559;19;20019;-62
2023/10/30 09:40:36;;;;;;;11.80;4.45;;;19.60;99.90;;;;;;7373986;19;20739;-63
2023/10/30 09:43:04;;;;;;;8.02;2.60;;;19.40;99.90;;;;;;7375178;19;20018;-61
2023/10/30 09:45:30;;;;;;;12.05;3.63;;;19.20;99.90;;;;;;7377436;19;20115;-61
2023/10/30 09:47:57;;;;;;;20.75;13.82;;;19.20;99.90;;;;;;7377639;19;20730;-61
2023/10/30 09:50:25;;;;;;;19.13;10.68;;;18.60;99.90;;;;;;7375049;19;20529;-61
2023/10/30 09:52:52;;;;;;;20.83;10.32;;;18.10;99.90;;;;;;7372572;19;20034;-61
2023/10/30 09:55:21;;;;;;;31.17;23.23;;;17.30;99.90;;;;;;7369467;19;20014;-61
2023/10/30 09:57:54;;;;;;;;;;;16.80;99.90;;;;;;7375969;19;20034;-62
2023/10/30 10:00:20;;;;;;;11.15;3.78;;;16.20;99.90;;;;;;7376791;19;19910;-63
2023/10/30 10:02:47;;;;;;;14.38;6.60;;;15.70;99.90;;;;;;7374111;19;20022;-62
2023/10/30 10:05:15;;;;;;;16.70;6.85;;;15.40;99.90;;;;;;7374534;19;20054;-61
2023/10/30 10:07:41;;;;;;;16.63;5.68;;;15.30;99.90;;;;;;7374616;19;20529;-61
2023/10/30 10:10:14;;;;;;;14.65;8.05;;;15.10;99.90;;;;;;7376091;19;20102;-61
2023/10/30 10:12:40;;;;;;;10.77;3.15;;;14.80;99.90;;;;;;7372880;19;20018;-62
2023/10/30 10:15:07;;;;;;;9.70;3.30;;;14.70;99.90;;;;;;7376384;19;20050;-63
2023/10/30 10:17:46;;;;;;;16.65;5.80;;;14.60;99.90;;;;;;7377620;19;20028;-62
2023/10/30 10:20:12;;;;;;;18.95;6.20;;;14.60;99.90;;;;;;7373949;19;20018;-63
2023/10/30 10:22:39;;;;;;;15.52;3.67;;;14.50;99.90;;;;;;7374934;19;20019;-64
2023/10/30 10:25:10;;;;;;;19.13;6.68;;;14.60;99.90;;;;;;7375913;19;20021;-63
2023/10/30 10:27:40;;;;;;;15.65;9.60;;;15.00;99.90;;;;;;7377908;19;20014;-63
2023/10/30 10:30:07;;;;;;;14.20;6.13;;;16.10;99.90;;;;;;7375898;19;20025;-64
2023/10/30 10:32:34;;;;;;;13.07;4.13;;;16.80;99.90;;;;;;7370459;19;20350;-64
2023/10/30 10:35:07;;;;;;;14.90;8.02;;;17.00;99.90;;;;;;7373087;19;20039;-63
2023/10/30 10:37:34;;;;;;;12.57;2.95;;;17.00;99.90;;;;;;7375887;19;20424;-64
2023/10/30 10:40:03;;;;;;;11.27;3.13;;;16.70;99.90;;;;;;7369246;19;20040;-64
2023/10/30 10:42:30;;;;;;;10.50;2.83;;;16.70;99.90;;;;;;7376482;19;20011;-64
2023/10/30 10:44:58;;;;;;;11.70;4.28;;;16.80;99.90;;;;;;7371930;19;20010;-63
2023/10/30 10:47:24;;;;;;;17.77;8.23;;;17.40;99.90;;;;;;7375337;19;20026;-61
2023/10/30 10:49:51;;;;;;;12.98;4.75;;;18.10;99.90;;;;;;7370870;19;20018;-63
2023/10/30 10:52:19;;;;;;;8.45;1.98;;;18.30;99.90;;;;;;7372581;19;20026;-64
2023/10/30 10:54:57;;;;;;;16.33;5.43;;;18.10;99.90;;;;;;7376015;19;20010;-61
2023/10/30 10:57:24;;;;;;;8.00;2.45;;;17.70;99.90;;;;;;7374654;19;20050;-65
2023/10/30 10:59:58;;;;;;;14.10;5.70;;;17.30;99.90;;;;;;7376734;19;20046;-65
2023/10/30 11:02:30;;;;;;;47.75;42.00;;;16.90;99.90;;;;;;7375031;19;20025;-62
2023/10/30 11:04:58;;;;;;;25.17;14.35;;;16.60;99.90;;;;;;7372573;19;20042;-61
2023/10/30 11:07:56;;;;;;;11.68;3.80;;;16.50;99.90;;;;;;7374271;19;20022;-65
2023/10/30 11:10:31;;;;;;;11.35;3.10;;;16.60;99.90;;;;;;7372659;19;20428;-61
2023/10/30 11:13:12;;;;;;;19.63;11.18;;;16.80;99.90;;;;;;7371759;19;20038;-61
2023/10/30 11:15:47;;;;;;;17.77;8.32;;;16.90;99.90;;;;;;7374671;19;20597;-61
2023/10/30 11:18:17;;;;;;;10.95;3.35;;;16.80;99.90;;;;;;7374044;19;20011;-61
2023/10/30 11:20:52;;;;;;;10.85;2.50;;;16.60;99.90;;;;;;7377903;19;20494;-60
2023/10/30 11:23:44;;;;;;;13.25;3.58;;;16.50;99.90;;;;;;7372577;19;20015;-61
2023/10/30 11:26:36;;;;;;;12.95;4.22;;;16.50;99.90;;;;;;7372680;19;20073;-61
2023/10/30 11:29:10;;;;;;;10.85;4.13;;;16.30;99.90;;;;;;7369961;19;20034;-60
2023/10/30 11:31:52;;;;;;;18.73;7.10;;;16.20;99.90;;;;;;7374587;19;20025;-60
2023/10/30 11:34:22;;;;;;;10.07;3.33;;;16.00;99.90;;;;;;7372506;19;20094;-61
2023/10/30 11:36:50;;;;;;;11.32;3.30;;;15.80;99.90;;;;;;7375199;19;20741;-61
2023/10/30 11:39:20;;;;;;;10.70;3.65;;;15.80;99.90;;;;;;7373644;19;20582;-60
2023/10/30 11:41:53;;;;;;;13.18;2.45;;;15.80;99.90;;;;;;7372921;19;20036;-61
2023/10/30 11:44:21;;;;;;;39.75;28.20;;;15.60;99.90;;;;;;7373622;19;20033;-61
2023/10/30 11:46:52;;;;;;;11.40;2.80;;;15.70;99.90;;;;;;7373773;19;20015;-64
2023/10/30 11:49:21;;;;;;;8.25;2.15;;;15.60;99.90;;;;;;7370439;19;20011;-64
2023/10/30 11:51:49;;;;;;;8.65;2.63;;;15.70;99.90;;;;;;7372515;19;20042;-64
2023/10/30 11:54:23;;;;;;;8.73;2.22;;;15.70;99.90;;;;;;7372332;19;20025;-64
2023/10/30 11:56:52;;;;;;;10.75;2.92;;;15.40;99.90;;;;;;7374118;19;20022;-64
2023/10/30 11:59:19;;;;;;;9.85;2.35;;;15.50;99.90;;;;;;7372850;19;20049;-64
2023/10/30 12:01:46;;;;;;;9.68;1.98;;;15.70;99.90;;;;;;7379832;19;20021;-64
2023/10/30 12:04:20;;;;;;;9.85;1.90;;;15.90;99.90;;;;;;7377062;19;20042;-64
2023/10/30 12:06:47;;;;;;;12.38;2.42;;;16.00;99.90;;;;;;7380911;19;20027;-64
2023/10/30 12:09:15;;;;;;;10.13;2.58;;;15.90;99.90;;;;;;7379739;19;20023;-64
2023/10/30 12:11:41;;;;;;;11.32;2.28;;;15.80;99.90;;;;;;7376950;19;20011;-64
2023/10/30 12:14:08;;;;;;;9.30;2.35;;;15.70;99.90;;;;;;7373206;19;20022;-61
2023/10/30 12:16:34;;;;;;;9.48;2.30;;;15.60;99.90;;;;;;7378766;19;20022;-61
2023/10/30 12:19:02;;;;;;;12.32;2.67;;;15.60;99.90;;;;;;7378913;19;20601;-61
2023/10/30 12:21:29;;;;;;;11.05;1.98;;;15.50;99.90;;;;;;7381489;19;20014;-61
2023/10/30 12:23:57;;;;;;;12.30;2.30;;;15.40;99.90;;;;;;7380334;19;20903;-61
2023/10/30 12:26:25;;;;;;;12.70;2.33;;;15.50;99.90;;;;;;7382312;19;20027;-61
2023/10/30 12:28:56;;;;;;;10.38;3.42;;;15.40;99.90;;;;;;7381223;19;20150;-61
2023/10/30 12:31:24;;;;;;;11.63;2.40;;;15.40;99.90;;;;;;7379009;19;20020;-61
2023/10/30 12:34:16;;;;;;;12.13;2.90;;;15.50;99.90;;;;;;7381173;19;20019;-61
2023/10/30 12:36:42;;;;;;;12.80;2.88;;;15.60;99.90;;;;;;7381538;19;20031;-64
2023/10/30 12:39:25;;;;;;;12.50;2.65;;;15.60;99.90;;;;;;7376579;19;20017;-61
2023/10/30 12:41:57;;;;;;;9.32;1.90;;;15.60;99.90;;;;;;7380414;19;20054;-62
2023/10/30 12:44:24;;;;;;;9.23;2.22;;;15.60;99.90;;;;;;7377405;19;20035;-61
2023/10/30 12:46:50;;;;;;;8.55;2.67;;;15.60;99.90;;;;;;7377260;19;20026;-61